Terminal Aerodrome Forecast
Issued by NWS

Home | Current Version | Previous Version | Text Only | Print | Product List | Glossary Off
Versions: 1 2 3 4 5 6 7 8 9 10 11 12 13 14 15 16 17

000
FTUS43 KBIS 171700
TAFDIK
TAF
KDIK 171724Z 1718/1818 34009KT P6SM BKN018
     FM172100 02007KT P6SM SCT025
     FM180600 15009KT P6SM SCT025
     FM181300 15014KT P6SM BKN025=

USA.gov is the U.S. government's official web portal to all federal, state and local government web resources and services.